sensor_id;sensor_type;location;lat;lon;timestamp;pressure;altitude;pressure_sealevel;temperature;humidity
44297;BME280;51842;47.450;8.654;2023-04-25T00:01:32;94989.66;;;6.10;96.75
44297;BME280;51842;47.450;8.654;2023-04-25T00:04:01;94981.97;;;6.08;97.31
44297;BME280;51842;47.450;8.654;2023-04-25T00:06:28;94985.13;;;6.05;97.91
44297;BME280;51842;47.450;8.654;2023-04-25T00:08:55;94994.16;;;6.09;97.86
44297;BME280;51842;47.450;8.654;2023-04-25T00:11:23;94996.22;;;6.07;97.58
44297;BME280;51842;47.450;8.654;2023-04-25T00:13:49;94991.72;;;6.08;96.85
44297;BME280;51842;47.450;8.654;2023-04-25T00:16:18;94987.94;;;5.98;96.40
44297;BME280;51842;47.450;8.654;2023-04-25T00:18:44;94986.91;;;5.99;97.73
44297;BME280;51842;47.450;8.654;2023-04-25T00:21:12;94980.00;;;5.98;98.07
44297;BME280;51842;47.450;8.654;2023-04-25T00:23:37;94972.34;;;5.97;97.66
44297;BME280;51842;47.450;8.654;2023-04-25T00:26:04;94980.19;;;5.92;97.40
44297;BME280;51842;47.450;8.654;2023-04-25T00:28:30;94985.19;;;5.88;96.73
44297;BME280;51842;47.450;8.654;2023-04-25T00:30:56;94983.53;;;5.82;96.99
44297;BME280;51842;47.450;8.654;2023-04-25T00:33:21;94982.19;;;5.79;96.86
44297;BME280;51842;47.450;8.654;2023-04-25T00:35:47;94975.00;;;5.75;96.35
44297;BME280;51842;47.450;8.654;2023-04-25T00:38:13;94978.91;;;5.67;96.08
44297;BME280;51842;47.450;8.654;2023-04-25T00:40:39;94973.00;;;5.60;95.08
44297;BME280;51842;47.450;8.654;2023-04-25T00:43:05;94971.91;;;5.56;94.90
44297;BME280;51842;47.450;8.654;2023-04-25T00:45:31;94973.19;;;5.53;94.21
44297;BME280;51842;47.450;8.654;2023-04-25T00:47:57;94979.75;;;5.51;94.76
44297;BME280;51842;47.450;8.654;2023-04-25T00:50:24;94982.88;;;5.48;94.30
44297;BME280;51842;47.450;8.654;2023-04-25T00:52:50;94979.72;;;5.46;94.07
44297;BME280;51842;47.450;8.654;2023-04-25T00:55:17;94980.94;;;5.38;93.78
44297;BME280;51842;47.450;8.654;2023-04-25T00:57:43;94978.75;;;5.30;93.98
44297;BME280;51842;47.450;8.654;2023-04-25T01:00:10;94983.16;;;5.24;93.85
44297;BME280;51842;47.450;8.654;2023-04-25T01:02:37;94987.56;;;5.19;93.73
44297;BME280;51842;47.450;8.654;2023-04-25T01:05:04;94975.91;;;5.15;94.20
44297;BME280;51842;47.450;8.654;2023-04-25T01:07:29;94979.25;;;5.10;93.95
44297;BME280;51842;47.450;8.654;2023-04-25T01:09:56;94983.19;;;5.07;93.74
44297;BME280;51842;47.450;8.654;2023-04-25T01:12:23;94984.50;;;5.05;93.50
44297;BME280;51842;47.450;8.654;2023-04-25T01:14:49;94987.84;;;5.00;93.15
44297;BME280;51842;47.450;8.654;2023-04-25T01:17:17;94976.97;;;4.97;92.55
44297;BME280;51842;47.450;8.654;2023-04-25T01:19:43;94971.22;;;5.00;92.10
44297;BME280;51842;47.450;8.654;2023-04-25T01:22:11;94969.69;;;5.04;91.42
44297;BME280;51842;47.450;8.654;2023-04-25T01:24:38;94961.53;;;5.05;90.93
44297;BME280;51842;47.450;8.654;2023-04-25T01:27:04;94964.97;;;5.06;91.14
44297;BME280;51842;47.450;8.654;2023-04-25T01:29:32;94965.44;;;5.03;90.81
44297;BME280;51842;47.450;8.654;2023-04-25T01:31:58;94960.66;;;5.00;90.62
44297;BME280;51842;47.450;8.654;2023-04-25T01:34:24;94964.59;;;4.97;90.99
44297;BME280;51842;47.450;8.654;2023-04-25T01:36:51;94964.03;;;4.95;90.87
44297;BME280;51842;47.450;8.654;2023-04-25T01:39:18;94958.50;;;4.97;91.04
44297;BME280;51842;47.450;8.654;2023-04-25T01:41:46;94957.44;;;4.98;91.04
44297;BME280;51842;47.450;8.654;2023-04-25T01:44:13;94952.75;;;5.00;91.26
44297;BME280;51842;47.450;8.654;2023-04-25T01:46:39;94958.81;;;5.00;91.47
44297;BME280;51842;47.450;8.654;2023-04-25T01:49:05;94958.28;;;4.98;91.68
44297;BME280;51842;47.450;8.654;2023-04-25T01:51:31;94954.59;;;4.99;91.81
44297;BME280;51842;47.450;8.654;2023-04-25T01:53:58;94957.44;;;4.98;91.76
44297;BME280;51842;47.450;8.654;2023-04-25T01:56:24;94953.50;;;4.95;91.69
44297;BME280;51842;47.450;8.654;2023-04-25T01:58:51;94952.91;;;4.93;91.78
44297;BME280;51842;47.450;8.654;2023-04-25T02:01:17;94951.56;;;4.91;91.75
44297;BME280;51842;47.450;8.654;2023-04-25T02:03:43;94953.09;;;4.86;92.89
44297;BME280;51842;47.450;8.654;2023-04-25T02:06:09;94949.81;;;4.79;93.55
44297;BME280;51842;47.450;8.654;2023-04-25T02:08:35;94947.03;;;4.69;95.38
44297;BME280;51842;47.450;8.654;2023-04-25T02:11:02;94937.72;;;4.61;95.17
44297;BME280;51842;47.450;8.654;2023-04-25T02:13:28;94944.31;;;4.42;96.94
44297;BME280;51842;47.450;8.654;2023-04-25T02:15:54;94949.72;;;4.35;97.64
44297;BME280;51842;47.450;8.654;2023-04-25T02:18:20;94946.53;;;4.33;97.21
44297;BME280;51842;47.450;8.654;2023-04-25T02:20:47;94944.28;;;4.25;96.31
44297;BME280;51842;47.450;8.654;2023-04-25T02:23:13;94953.47;;;4.06;97.17
44297;BME280;51842;47.450;8.654;2023-04-25T02:25:41;94945.72;;;3.99;97.57
44297;BME280;51842;47.450;8.654;2023-04-25T02:28:06;94949.06;;;3.94;97.75
44297;BME280;51842;47.450;8.654;2023-04-25T02:30:32;94943.16;;;3.87;97.76
44297;BME280;51842;47.450;8.654;2023-04-25T02:32:58;94941.41;;;3.76;97.74
44297;BME280;51842;47.450;8.654;2023-04-25T02:35:24;94936.41;;;3.63;99.05
44297;BME280;51842;47.450;8.654;2023-04-25T02:37:50;94938.38;;;3.56;99.51
44297;BME280;51842;47.450;8.654;2023-04-25T02:40:16;94938.28;;;3.51;99.00
44297;BME280;51842;47.450;8.654;2023-04-25T02:42:41;94934.34;;;3.36;100.00
44297;BME280;51842;47.450;8.654;2023-04-25T02:45:08;94942.25;;;3.36;100.00
44297;BME280;51842;47.450;8.654;2023-04-25T02:47:34;94936.41;;;3.34;100.00
44297;BME280;51842;47.450;8.654;2023-04-25T02:49:59;94939.50;;;3.31;100.00
44297;BME280;51842;47.450;8.654;2023-04-25T02:52:25;94926.28;;;3.26;100.00
44297;BME280;51842;47.450;8.654;2023-04-25T02:54:51;94933.81;;;3.22;100.00
44297;BME280;51842;47.450;8.654;2023-04-25T02:57:17;94931.91;;;3.18;100.00
44297;BME280;51842;47.450;8.654;2023-04-25T02:59:42;94930.53;;;3.15;100.00
44297;BME280;51842;47.450;8.654;2023-04-25T03:02:09;94921.25;;;3.13;100.00
44297;BME280;51842;47.450;8.654;2023-04-25T03:04:35;94924.34;;;3.10;100.00
44297;BME280;51842;47.450;8.654;2023-04-25T03:07:00;94914.88;;;3.09;100.00
44297;BME280;51842;47.450;8.654;2023-04-25T03:09:26;94924.59;;;3.08;100.00
44297;BME280;51842;47.450;8.654;2023-04-25T03:11:52;94916.72;;;3.08;100.00
44297;BME280;51842;47.450;8.654;2023-04-25T03:14:18;94915.13;;;3.07;100.00
44297;BME280;51842;47.450;8.654;2023-04-25T03:16:44;94913.16;;;3.03;100.00
44297;BME280;51842;47.450;8.654;2023-04-25T03:19:10;94908.84;;;2.96;100.00
44297;BME280;51842;47.450;8.654;2023-04-25T03:21:36;94917.44;;;2.92;100.00
44297;BME280;51842;47.450;8.654;2023-04-25T03:24:04;94915.16;;;2.84;100.00
44297;BME280;51842;47.450;8.654;2023-04-25T03:26:30;94911.41;;;2.80;100.00
44297;BME280;51842;47.450;8.654;2023-04-25T03:28:56;94913.25;;;2.79;100.00
44297;BME280;51842;47.450;8.654;2023-04-25T03:31:21;94911.28;;;2.74;100.00
44297;BME280;51842;47.450;8.654;2023-04-25T03:33:48;94914.25;;;2.66;100.00
44297;BME280;51842;47.450;8.654;2023-04-25T03:36:14;94913.38;;;2.61;100.00
44297;BME280;51842;47.450;8.654;2023-04-25T03:38:40;94907.78;;;2.57;100.00
44297;BME280;51842;47.450;8.654;2023-04-25T03:41:08;94905.03;;;2.52;100.00
44297;BME280;51842;47.450;8.654;2023-04-25T03:43:33;94907.34;;;2.48;100.00
44297;BME280;51842;47.450;8.654;2023-04-25T03:46:00;94900.91;;;2.44;100.00
44297;BME280;51842;47.450;8.654;2023-04-25T03:48:26;94901.81;;;2.38;100.00
44297;BME280;51842;47.450;8.654;2023-04-25T03:50:54;94903.31;;;2.34;100.00
44297;BME280;51842;47.450;8.654;2023-04-25T03:53:19;94900.81;;;2.27;100.00
44297;BME280;51842;47.450;8.654;2023-04-25T03:55:45;94896.81;;;2.25;100.00
44297;BME280;51842;47.450;8.654;2023-04-25T03:58:11;94901.53;;;2.23;100.00
44297;BME280;51842;47.450;8.654;2023-04-25T04:00:37;94899.69;;;2.23;100.00
44297;BME280;51842;47.450;8.654;2023-04-25T04:03:05;94901.72;;;2.21;100.00
44297;BME280;51842;47.450;8.654;2023-04-25T04:05:30;94895.44;;;2.22;100.00
44297;BME280;51842;47.450;8.654;2023-04-25T04:07:56;94902.06;;;2.25;100.00
44297;BME280;51842;47.450;8.654;2023-04-25T04:10:23;94901.84;;;2.26;100.00
44297;BME280;51842;47.450;8.654;2023-04-25T04:12:49;94905.28;;;2.27;100.00
44297;BME280;51842;47.450;8.654;2023-04-25T04:15:14;94903.69;;;2.26;100.00
44297;BME280;51842;47.450;8.654;2023-04-25T04:17:40;94903.44;;;2.27;100.00
44297;BME280;51842;47.450;8.654;2023-04-25T04:20:07;94905.03;;;2.28;100.00
44297;BME280;51842;47.450;8.654;2023-04-25T04:22:34;94902.19;;;2.30;100.00
44297;BME280;51842;47.450;8.654;2023-04-25T04:25:00;94895.91;;;2.31;100.00
44297;BME280;51842;47.450;8.654;2023-04-25T04:27:26;94892.00;;;2.34;100.00
44297;BME280;51842;47.450;8.654;2023-04-25T04:29:51;94891.81;;;2.35;100.00
44297;BME280;51842;47.450;8.654;2023-04-25T04:32:18;94885.72;;;2.35;100.00
44297;BME280;51842;47.450;8.654;2023-04-25T04:34:44;94882.28;;;2.34;100.00
44297;BME280;51842;47.450;8.654;2023-04-25T04:37:10;94881.28;;;2.35;100.00
44297;BME280;51842;47.450;8.654;2023-04-25T04:39:38;94888.13;;;2.36;100.00
44297;BME280;51842;47.450;8.654;2023-04-25T04:42:04;94883.44;;;2.38;100.00
44297;BME280;51842;47.450;8.654;2023-04-25T04:44:31;94886.06;;;2.38;100.00
44297;BME280;51842;47.450;8.654;2023-04-25T04:47:01;94882.97;;;2.41;100.00
44297;BME280;51842;47.450;8.654;2023-04-25T04:49:27;94882.16;;;2.41;100.00
44297;BME280;51842;47.450;8.654;2023-04-25T04:51:53;94885.13;;;2.44;100.00
44297;BME280;51842;47.450;8.654;2023-04-25T04:54:20;94885.84;;;2.51;100.00
44297;BME280;51842;47.450;8.654;2023-04-25T04:56:46;94887.53;;;2.58;100.00
44297;BME280;51842;47.450;8.654;2023-04-25T04:59:11;94884.22;;;2.62;100.00
44297;BME280;51842;47.450;8.654;2023-04-25T05:01:37;94889.00;;;2.65;100.00
44297;BME280;51842;47.450;8.654;2023-04-25T05:04:03;94887.28;;;2.71;100.00
44297;BME280;51842;47.450;8.654;2023-04-25T05:06:30;94884.63;;;2.83;100.00
44297;BME280;51842;47.450;8.654;2023-04-25T05:08:57;94880.03;;;2.90;100.00
44297;BME280;51842;47.450;8.654;2023-04-25T05:11:26;94890.41;;;2.96;100.00
44297;BME280;51842;47.450;8.654;2023-04-25T05:13:52;94881.03;;;3.00;100.00
44297;BME280;51842;47.450;8.654;2023-04-25T05:16:19;94883.75;;;3.06;100.00
44297;BME280;51842;47.450;8.654;2023-04-25T05:18:46;94878.81;;;3.09;100.00
44297;BME280;51842;47.450;8.654;2023-04-25T05:21:12;94881.41;;;3.21;100.00
44297;BME280;51842;47.450;8.654;2023-04-25T05:23:38;94884.19;;;3.43;100.00
44297;BME280;51842;47.450;8.654;2023-04-25T05:26:03;94886.94;;;3.65;100.00
44297;BME280;51842;47.450;8.654;2023-04-25T05:28:29;94885.91;;;3.83;100.00
44297;BME280;51842;47.450;8.654;2023-04-25T05:30:56;94883.44;;;3.93;100.00
44297;BME280;51842;47.450;8.654;2023-04-25T05:33:22;94879.19;;;4.09;100.00
44297;BME280;51842;47.450;8.654;2023-04-25T05:35:48;94885.50;;;4.25;100.00
44297;BME280;51842;47.450;8.654;2023-04-25T05:38:14;94882.03;;;4.41;100.00
44297;BME280;51842;47.450;8.654;2023-04-25T05:40:40;94883.84;;;4.57;100.00
44297;BME280;51842;47.450;8.654;2023-04-25T05:43:06;94891.72;;;4.74;100.00
44297;BME280;51842;47.450;8.654;2023-04-25T05:45:32;94889.81;;;4.92;100.00
44297;BME280;51842;47.450;8.654;2023-04-25T05:47:58;94888.16;;;5.07;100.00
44297;BME280;51842;47.450;8.654;2023-04-25T05:50:24;94891.44;;;5.20;100.00
44297;BME280;51842;47.450;8.654;2023-04-25T05:52:50;94887.41;;;5.34;100.00
44297;BME280;51842;47.450;8.654;2023-04-25T05:55:16;94884.81;;;5.39;97.92
44297;BME280;51842;47.450;8.654;2023-04-25T05:57:41;94881.50;;;5.54;96.89
44297;BME280;51842;47.450;8.654;2023-04-25T06:00:12;94888.56;;;5.70;97.14
44297;BME280;51842;47.450;8.654;2023-04-25T06:02:38;94878.41;;;5.89;96.35
44297;BME280;51842;47.450;8.654;2023-04-25T06:05:04;94879.88;;;6.07;95.84
44297;BME280;51842;47.450;8.654;2023-04-25T06:07:30;94885.28;;;6.17;94.52
44297;BME280;51842;47.450;8.654;2023-04-25T06:09:56;94889.84;;;6.27;90.45
44297;BME280;51842;47.450;8.654;2023-04-25T06:12:22;94887.00;;;6.39;89.39
44297;BME280;51842;47.450;8.654;2023-04-25T06:14:48;94894.19;;;6.48;87.09
44297;BME280;51842;47.450;8.654;2023-04-25T06:17:14;94896.13;;;6.58;86.01
44297;BME280;51842;47.450;8.654;2023-04-25T06:19:39;94895.09;;;6.64;86.03
44297;BME280;51842;47.450;8.654;2023-04-25T06:22:07;94899.84;;;6.67;85.24
44297;BME280;51842;47.450;8.654;2023-04-25T06:24:33;94899.91;;;6.72;84.69
44297;BME280;51842;47.450;8.654;2023-04-25T06:26:59;94903.34;;;6.73;84.30
44297;BME280;51842;47.450;8.654;2023-04-25T06:29:25;94907.84;;;6.72;83.77
44297;BME280;51842;47.450;8.654;2023-04-25T06:31:51;94912.28;;;6.67;83.80
44297;BME280;51842;47.450;8.654;2023-04-25T06:34:17;94929.19;;;6.61;86.68
44297;BME280;51842;47.450;8.654;2023-04-25T06:36:43;94931.78;;;6.51;87.00
44297;BME280;51842;47.450;8.654;2023-04-25T06:39:10;94949.44;;;6.40;91.18
44297;BME280;51842;47.450;8.654;2023-04-25T06:41:36;94946.63;;;6.19;91.94
44297;BME280;51842;47.450;8.654;2023-04-25T06:44:02;94944.91;;;6.03;94.05
44297;BME280;51842;47.450;8.654;2023-04-25T06:46:28;94948.25;;;5.93;96.15
44297;BME280;51842;47.450;8.654;2023-04-25T06:48:54;94946.72;;;5.75;97.62
44297;BME280;51842;47.450;8.654;2023-04-25T06:51:19;94944.72;;;5.61;98.11
44297;BME280;51842;47.450;8.654;2023-04-25T06:53:45;94936.78;;;5.61;98.90
44297;BME280;51842;47.450;8.654;2023-04-25T06:56:11;94940.56;;;5.65;99.92
44297;BME280;51842;47.450;8.654;2023-04-25T06:58:36;94940.28;;;5.66;99.83
44297;BME280;51842;47.450;8.654;2023-04-25T07:01:03;94943.94;;;5.60;100.00
44297;BME280;51842;47.450;8.654;2023-04-25T07:03:29;94931.78;;;5.59;100.00
44297;BME280;51842;47.450;8.654;2023-04-25T07:05:55;94942.91;;;5.61;100.00
44297;BME280;51842;47.450;8.654;2023-04-25T07:08:21;94942.34;;;5.59;100.00
44297;BME280;51842;47.450;8.654;2023-04-25T07:10:47;94939.34;;;5.50;100.00
44297;BME280;51842;47.450;8.654;2023-04-25T07:13:13;94940.38;;;5.49;100.00
44297;BME280;51842;47.450;8.654;2023-04-25T07:15:38;94941.19;;;5.50;100.00
44297;BME280;51842;47.450;8.654;2023-04-25T07:18:04;94943.81;;;5.50;100.00
44297;BME280;51842;47.450;8.654;2023-04-25T07:20:30;94941.19;;;5.50;100.00
44297;BME280;51842;47.450;8.654;2023-04-25T07:22:57;94942.25;;;5.49;100.00
44297;BME280;51842;47.450;8.654;2023-04-25T07:25:23;94940.44;;;5.54;100.00
44297;BME280;51842;47.450;8.654;2023-04-25T07:27:48;94945.78;;;5.60;100.00
44297;BME280;51842;47.450;8.654;2023-04-25T07:30:14;94948.72;;;5.63;100.00
44297;BME280;51842;47.450;8.654;2023-04-25T07:32:40;94949.22;;;5.60;100.00
44297;BME280;51842;47.450;8.654;2023-04-25T07:35:06;94953.97;;;5.58;100.00
44297;BME280;51842;47.450;8.654;2023-04-25T07:37:36;94952.13;;;5.59;100.00
44297;BME280;51842;47.450;8.654;2023-04-25T07:40:03;94955.50;;;5.54;100.00
44297;BME280;51842;47.450;8.654;2023-04-25T07:42:30;94960.25;;;5.52;100.00
44297;BME280;51842;47.450;8.654;2023-04-25T07:44:56;94959.97;;;5.53;100.00
44297;BME280;51842;47.450;8.654;2023-04-25T07:47:22;94969.31;;;5.61;100.00
44297;BME280;51842;47.450;8.654;2023-04-25T07:49:48;94970.41;;;5.65;100.00
44297;BME280;51842;47.450;8.654;2023-04-25T07:52:14;94979.13;;;5.66;100.00
44297;BME280;51842;47.450;8.654;2023-04-25T07:54:40;94970.97;;;5.67;100.00
44297;BME280;51842;47.450;8.654;2023-04-25T07:57:06;94974.75;;;5.76;100.00
44297;BME280;51842;47.450;8.654;2023-04-25T07:59:32;94972.97;;;5.82;100.00
44297;BME280;51842;47.450;8.654;2023-04-25T08:01:58;94971.72;;;5.90;100.00
44297;BME280;51842;47.450;8.654;2023-04-25T08:04:24;94977.88;;;5.95;100.00
44297;BME280;51842;47.450;8.654;2023-04-25T08:06:54;94973.69;;;5.99;100.00
44297;BME280;51842;47.450;8.654;2023-04-25T08:09:20;94978.50;;;6.08;100.00
44297;BME280;51842;47.450;8.654;2023-04-25T08:11:47;94978.06;;;6.16;100.00
44297;BME280;51842;47.450;8.654;2023-04-25T08:14:13;94986.22;;;6.41;100.00
44297;BME280;51842;47.450;8.654;2023-04-25T08:16:39;94990.00;;;6.51;100.00
44297;BME280;51842;47.450;8.654;2023-04-25T08:19:05;94991.97;;;6.65;100.00
44297;BME280;51842;47.450;8.654;2023-04-25T08:21:32;94996.78;;;6.73;99.06
44297;BME280;51842;47.450;8.654;2023-04-25T08:23:58;94998.28;;;6.59;97.59
44297;BME280;51842;47.450;8.654;2023-04-25T08:26:25;95008.09;;;6.64;98.82
44297;BME280;51842;47.450;8.654;2023-04-25T08:28:51;95017.88;;;6.63;97.85
44297;BME280;51842;47.450;8.654;2023-04-25T08:31:17;95012.13;;;6.71;98.54
44297;BME280;51842;47.450;8.654;2023-04-25T08:33:43;95019.84;;;6.78;98.61
44297;BME280;51842;47.450;8.654;2023-04-25T08:36:10;95020.31;;;6.70;95.31
44297;BME280;51842;47.450;8.654;2023-04-25T08:38:36;95022.28;;;6.85;97.61
44297;BME280;51842;47.450;8.654;2023-04-25T08:41:02;95028.13;;;6.87;96.02
44297;BME280;51842;47.450;8.654;2023-04-25T08:43:29;95033.66;;;6.85;96.21
44297;BME280;51842;47.450;8.654;2023-04-25T08:46:00;95037.47;;;7.00;95.64
44297;BME280;51842;47.450;8.654;2023-04-25T08:48:28;95030.44;;;7.21;93.78
44297;BME280;51842;47.450;8.654;2023-04-25T08:50:56;95036.28;;;7.23;93.60
44297;BME280;51842;47.450;8.654;2023-04-25T08:53:28;95039.50;;;7.30;91.77
44297;BME280;51842;47.450;8.654;2023-04-25T08:55:56;95052.88;;;7.50;94.01
44297;BME280;51842;47.450;8.654;2023-04-25T08:58:23;95045.38;;;7.42;90.99
44297;BME280;51842;47.450;8.654;2023-04-25T09:00:51;95051.94;;;7.24;92.00
44297;BME280;51842;47.450;8.654;2023-04-25T09:03:18;95066.81;;;7.30;93.01
44297;BME280;51842;47.450;8.654;2023-04-25T09:05:43;95067.59;;;7.31;92.69
44297;BME280;51842;47.450;8.654;2023-04-25T09:08:10;95061.91;;;7.12;89.21
44297;BME280;51842;47.450;8.654;2023-04-25T09:10:37;95065.31;;;7.02;89.38
44297;BME280;51842;47.450;8.654;2023-04-25T09:15:32;95080.75;;;7.15;91.56
44297;BME280;51842;47.450;8.654;2023-04-25T09:17:59;95087.41;;;7.23;90.82
44297;BME280;51842;47.450;8.654;2023-04-25T09:20:25;95087.56;;;7.06;90.76
44297;BME280;51842;47.450;8.654;2023-04-25T09:23:05;95096.25;;;7.02;91.90
44297;BME280;51842;47.450;8.654;2023-04-25T09:25:36;95110.06;;;7.04;93.63
44297;BME280;51842;47.450;8.654;2023-04-25T09:28:06;95099.75;;;7.07;92.78
44297;BME280;51842;47.450;8.654;2023-04-25T09:30:36;95093.50;;;7.24;91.35
44297;BME280;51842;47.450;8.654;2023-04-25T09:33:12;95106.34;;;7.42;91.43
44297;BME280;51842;47.450;8.654;2023-04-25T09:35:44;95102.44;;;7.50;89.96
44297;BME280;51842;47.450;8.654;2023-04-25T09:38:13;95113.56;;;7.52;89.97
44297;BME280;51842;47.450;8.654;2023-04-25T09:40:45;95112.28;;;7.64;89.73
44297;BME280;51842;47.450;8.654;2023-04-25T09:43:22;95113.84;;;7.55;87.34
44297;BME280;51842;47.450;8.654;2023-04-25T09:45:50;95119.81;;;7.78;88.94
44297;BME280;51842;47.450;8.654;2023-04-25T09:48:22;95112.78;;;8.09;86.92
44297;BME280;51842;47.450;8.654;2023-04-25T09:51:12;95119.81;;;8.46;85.49
44297;BME280;51842;47.450;8.654;2023-04-25T09:53:44;95111.66;;;8.93;81.99
44297;BME280;51842;47.450;8.654;2023-04-25T09:56:12;95114.81;;;9.36;80.48
44297;BME280;51842;47.450;8.654;2023-04-25T09:58:40;95118.78;;;9.54;78.92
44297;BME280;51842;47.450;8.654;2023-04-25T10:01:08;95118.75;;;9.64;76.70
44297;BME280;51842;47.450;8.654;2023-04-25T10:03:37;95121.69;;;9.63;77.14
44297;BME280;51842;47.450;8.654;2023-04-25T10:06:13;95127.59;;;9.49;74.92
44297;BME280;51842;47.450;8.654;2023-04-25T10:08:40;95132.34;;;9.53;75.38
44297;BME280;51842;47.450;8.654;2023-04-25T10:11:08;95133.69;;;9.50;75.07
44297;BME280;51842;47.450;8.654;2023-04-25T10:13:35;95130.22;;;9.55;73.95
44297;BME280;51842;47.450;8.654;2023-04-25T10:16:04;95125.16;;;9.58;74.68
44297;BME280;51842;47.450;8.654;2023-04-25T10:18:32;95127.81;;;9.58;74.43
44297;BME280;51842;47.450;8.654;2023-04-25T10:21:07;95127.53;;;9.75;73.50
44297;BME280;51842;47.450;8.654;2023-04-25T10:23:34;95135.25;;;9.61;72.39
44297;BME280;51842;47.450;8.654;2023-04-25T10:26:02;95130.22;;;9.60;72.16
44297;BME280;51842;47.450;8.654;2023-04-25T10:28:28;95141.13;;;9.53;72.99
44297;BME280;51842;47.450;8.654;2023-04-25T10:31:02;95143.00;;;9.47;74.18
44297;BME280;51842;47.450;8.654;2023-04-25T10:33:39;95140.88;;;9.49;75.03
44297;BME280;51842;47.450;8.654;2023-04-25T10:36:15;95138.19;;;9.55;74.33
44297;BME280;51842;47.450;8.654;2023-04-25T10:38:44;95141.31;;;9.87;74.55
44297;BME280;51842;47.450;8.654;2023-04-25T10:41:12;95137.72;;;10.33;72.27
44297;BME280;51842;47.450;8.654;2023-04-25T10:43:44;95131.53;;;10.92;71.37
44297;BME280;51842;47.450;8.654;2023-04-25T10:46:28;95143.97;;;11.36;65.40
44297;BME280;51842;47.450;8.654;2023-04-25T10:49:00;95143.09;;;11.46;66.15
44297;BME280;51842;47.450;8.654;2023-04-25T10:51:32;95148.97;;;11.48;66.25
44297;BME280;51842;47.450;8.654;2023-04-25T10:54:04;95149.63;;;11.34;64.38
44297;BME280;51842;47.450;8.654;2023-04-25T10:56:48;95149.28;;;11.41;64.94
44297;BME280;51842;47.450;8.654;2023-04-25T10:59:19;95149.06;;;11.03;62.95
44297;BME280;51842;47.450;8.654;2023-04-25T11:01:52;95158.03;;;10.73;65.48
44297;BME280;51842;47.450;8.654;2023-04-25T11:04:32;95161.94;;;10.86;68.26
44297;BME280;51842;47.450;8.654;2023-04-25T11:07:26;95155.34;;;10.73;64.88
44297;BME280;51842;47.450;8.654;2023-04-25T11:09:54;95157.91;;;10.44;64.51
44297;BME280;51842;47.450;8.654;2023-04-25T11:12:20;95158.88;;;10.63;65.77
44297;BME280;51842;47.450;8.654;2023-04-25T11:14:45;95157.50;;;10.71;67.00
44297;BME280;51842;47.450;8.654;2023-04-25T11:17:11;95162.72;;;10.86;64.53
44297;BME280;51842;47.450;8.654;2023-04-25T11:19:37;95155.50;;;10.92;61.81
44297;BME280;51842;47.450;8.654;2023-04-25T11:22:03;95152.28;;;11.34;64.66
44297;BME280;51842;47.450;8.654;2023-04-25T11:24:32;95153.56;;;12.00;64.01
44297;BME280;51842;47.450;8.654;2023-04-25T11:26:59;95150.06;;;11.71;58.02
44297;BME280;51842;47.450;8.654;2023-04-25T11:29:29;95144.34;;;11.82;61.32
44297;BME280;51842;47.450;8.654;2023-04-25T11:31:56;95152.31;;;11.29;59.02
44297;BME280;51842;47.450;8.654;2023-04-25T11:34:24;95146.06;;;11.10;60.78
44297;BME280;51842;47.450;8.654;2023-04-25T11:36:51;95144.72;;;11.13;60.35
44297;BME280;51842;47.450;8.654;2023-04-25T11:39:19;95142.66;;;11.33;60.49
44297;BME280;51842;47.450;8.654;2023-04-25T11:41:46;95147.22;;;11.33;60.66
44297;BME280;51842;47.450;8.654;2023-04-25T11:44:16;95146.78;;;11.50;60.87
44297;BME280;51842;47.450;8.654;2023-04-25T11:46:43;95147.13;;;11.43;61.20
44297;BME280;51842;47.450;8.654;2023-04-25T11:49:09;95147.19;;;10.99;60.98
44297;BME280;51842;47.450;8.654;2023-04-25T11:51:42;95142.84;;;10.74;61.37
44297;BME280;51842;47.450;8.654;2023-04-25T11:54:09;95154.13;;;11.00;60.77
44297;BME280;51842;47.450;8.654;2023-04-25T11:56:35;95143.47;;;11.34;61.78
44297;BME280;51842;47.450;8.654;2023-04-25T11:59:04;95146.31;;;11.43;57.30
44297;BME280;51842;47.450;8.654;2023-04-25T12:01:36;95154.75;;;11.55;58.56
44297;BME280;51842;47.450;8.654;2023-04-25T12:04:13;95153.94;;;11.60;59.00
44297;BME280;51842;47.450;8.654;2023-04-25T12:06:41;95164.19;;;11.71;59.78
44297;BME280;51842;47.450;8.654;2023-04-25T12:09:10;95164.66;;;11.49;58.04
44297;BME280;51842;47.450;8.654;2023-04-25T12:11:53;95164.06;;;11.28;60.85
44297;BME280;51842;47.450;8.654;2023-04-25T12:14:27;95165.13;;;11.27;61.32
44297;BME280;51842;47.450;8.654;2023-04-25T12:16:57;95177.94;;;11.25;62.48
44297;BME280;51842;47.450;8.654;2023-04-25T12:19:23;95180.19;;;11.08;63.92
44297;BME280;51842;47.450;8.654;2023-04-25T12:21:50;95176.75;;;10.58;64.99
44297;BME280;51842;47.450;8.654;2023-04-25T12:24:24;95182.72;;;10.24;67.20
44297;BME280;51842;47.450;8.654;2023-04-25T12:27:01;95179.06;;;10.00;69.20
44297;BME280;51842;47.450;8.654;2023-04-25T12:29:32;95191.59;;;9.84;68.22
44297;BME280;51842;47.450;8.654;2023-04-25T12:31:59;95189.00;;;9.53;69.89
44297;BME280;51842;47.450;8.654;2023-04-25T12:34:27;95196.44;;;9.56;69.31
44297;BME280;51842;47.450;8.654;2023-04-25T12:36:53;95192.41;;;9.74;72.45
44297;BME280;51842;47.450;8.654;2023-04-25T12:39:22;95196.41;;;9.82;72.60
44297;BME280;51842;47.450;8.654;2023-04-25T12:41:49;95202.94;;;10.30;73.65
44297;BME280;51842;47.450;8.654;2023-04-25T12:44:16;95197.78;;;10.59;70.98
44297;BME280;51842;47.450;8.654;2023-04-25T12:46:42;95203.56;;;10.72;68.27
44297;BME280;51842;47.450;8.654;2023-04-25T12:49:08;95206.22;;;10.77;68.15
44297;BME280;51842;47.450;8.654;2023-04-25T12:51:35;95202.22;;;10.79;67.45
44297;BME280;51842;47.450;8.654;2023-04-25T12:54:04;95208.41;;;10.70;65.77
44297;BME280;51842;47.450;8.654;2023-04-25T12:56:30;95207.31;;;10.71;66.46
44297;BME280;51842;47.450;8.654;2023-04-25T12:58:57;95198.84;;;11.08;65.70
44297;BME280;51842;47.450;8.654;2023-04-25T13:01:24;95199.88;;;11.80;63.77
44297;BME280;51842;47.450;8.654;2023-04-25T13:03:50;95183.94;;;12.29;59.23
44297;BME280;51842;47.450;8.654;2023-04-25T13:06:19;95185.63;;;12.86;59.02
44297;BME280;51842;47.450;8.654;2023-04-25T13:08:45;95180.94;;;13.35;57.03